sensor_id;sensor_type;location;lat;lon;timestamp;P1;durP1;ratioP1;P2;durP2;ratioP2
70806;SDS011;58882;52.170;5.386;2023-03-08T00:00:40;4.65;;;1.60;;
70806;SDS011;58882;52.170;5.386;2023-03-08T00:03:34;3.67;;;1.50;;
70806;SDS011;58882;52.170;5.386;2023-03-08T00:06:14;5.95;;;1.58;;
70806;SDS011;58882;52.170;5.386;2023-03-08T00:09:08;6.93;;;1.60;;
70806;SDS011;58882;52.170;5.386;2023-03-08T00:11:48;3.22;;;1.40;;
70806;SDS011;58882;52.170;5.386;2023-03-08T00:14:36;3.75;;;1.50;;
70806;SDS011;58882;52.170;5.386;2023-03-08T00:17:08;3.38;;;1.30;;
70806;SDS011;58882;52.170;5.386;2023-03-08T00:20:03;4.88;;;1.75;;
70806;SDS011;58882;52.170;5.386;2023-03-08T00:22:41;3.30;;;1.35;;
70806;SDS011;58882;52.170;5.386;2023-03-08T00:25:34;5.28;;;1.33;;
70806;SDS011;58882;52.170;5.386;2023-03-08T00:28:07;4.32;;;1.48;;
70806;SDS011;58882;52.170;5.386;2023-03-08T00:31:04;3.92;;;1.30;;
70806;SDS011;58882;52.170;5.386;2023-03-08T00:33:46;4.57;;;1.48;;
70806;SDS011;58882;52.170;5.386;2023-03-08T00:36:33;3.95;;;1.70;;
70806;SDS011;58882;52.170;5.386;2023-03-08T00:39:16;4.70;;;1.42;;
70806;SDS011;58882;52.170;5.386;2023-03-08T00:42:02;4.63;;;1.45;;
70806;SDS011;58882;52.170;5.386;2023-03-08T00:44:42;4.38;;;1.45;;
70806;SDS011;58882;52.170;5.386;2023-03-08T00:47:36;6.15;;;1.70;;
70806;SDS011;58882;52.170;5.386;2023-03-08T00:50:17;5.18;;;1.75;;
70806;SDS011;58882;52.170;5.386;2023-03-08T00:53:04;2.72;;;1.40;;
70806;SDS011;58882;52.170;5.386;2023-03-08T00:55:48;5.15;;;1.73;;
70806;SDS011;58882;52.170;5.386;2023-03-08T00:58:46;5.30;;;1.60;;
70806;SDS011;58882;52.170;5.386;2023-03-08T01:01:26;4.88;;;1.63;;
70806;SDS011;58882;52.170;5.386;2023-03-08T01:04:13;5.10;;;1.60;;
70806;SDS011;58882;52.170;5.386;2023-03-08T01:06:53;3.28;;;1.42;;
70806;SDS011;58882;52.170;5.386;2023-03-08T01:09:47;3.03;;;1.30;;
70806;SDS011;58882;52.170;5.386;2023-03-08T01:12:28;3.55;;;1.35;;
70806;SDS011;58882;52.170;5.386;2023-03-08T01:15:23;2.75;;;1.50;;
70806;SDS011;58882;52.170;5.386;2023-03-08T01:18:04;11.10;;;2.13;;
70806;SDS011;58882;52.170;5.386;2023-03-08T01:20:59;5.03;;;1.33;;
70806;SDS011;58882;52.170;5.386;2023-03-08T01:23:42;3.50;;;1.75;;
70806;SDS011;58882;52.170;5.386;2023-03-08T01:26:35;5.40;;;1.60;;
70806;SDS011;58882;52.170;5.386;2023-03-08T01:29:09;2.80;;;1.38;;
70806;SDS011;58882;52.170;5.386;2023-03-08T01:32:02;5.60;;;1.60;;
70806;SDS011;58882;52.170;5.386;2023-03-08T01:34:42;5.82;;;1.73;;
70806;SDS011;58882;52.170;5.386;2023-03-08T01:37:36;3.55;;;1.50;;
70806;SDS011;58882;52.170;5.386;2023-03-08T01:40:16;4.07;;;1.88;;
70806;SDS011;58882;52.170;5.386;2023-03-08T01:43:10;5.97;;;1.80;;
70806;SDS011;58882;52.170;5.386;2023-03-08T01:49:23;3.67;;;1.80;;
70806;SDS011;58882;52.170;5.386;2023-03-08T01:55:00;4.93;;;2.28;;
70806;SDS011;58882;52.170;5.386;2023-03-08T01:57:39;5.57;;;2.13;;
70806;SDS011;58882;52.170;5.386;2023-03-08T02:00:35;6.82;;;2.60;;
70806;SDS011;58882;52.170;5.386;2023-03-08T02:03:11;8.05;;;2.70;;
70806;SDS011;58882;52.170;5.386;2023-03-08T02:06:05;6.35;;;2.50;;
70806;SDS011;58882;52.170;5.386;2023-03-08T02:08:47;6.57;;;2.55;;
70806;SDS011;58882;52.170;5.386;2023-03-08T02:11:36;6.63;;;2.97;;
70806;SDS011;58882;52.170;5.386;2023-03-08T02:14:18;7.35;;;3.30;;
70806;SDS011;58882;52.170;5.386;2023-03-08T02:17:05;6.85;;;3.22;;
70806;SDS011;58882;52.170;5.386;2023-03-08T02:22:39;8.63;;;3.33;;
70806;SDS011;58882;52.170;5.386;2023-03-08T02:25:21;7.30;;;3.28;;
70806;SDS011;58882;52.170;5.386;2023-03-08T02:28:09;6.88;;;3.55;;
70806;SDS011;58882;52.170;5.386;2023-03-08T02:30:51;11.07;;;3.35;;
70806;SDS011;58882;52.170;5.386;2023-03-08T02:33:38;6.28;;;3.35;;
70806;SDS011;58882;52.170;5.386;2023-03-08T02:36:18;7.30;;;3.50;;
70806;SDS011;58882;52.170;5.386;2023-03-08T02:39:05;10.30;;;3.72;;
70806;SDS011;58882;52.170;5.386;2023-03-08T02:41:45;6.57;;;3.80;;
70806;SDS011;58882;52.170;5.386;2023-03-08T02:44:32;8.90;;;4.20;;
70806;SDS011;58882;52.170;5.386;2023-03-08T02:47:14;6.47;;;3.40;;
70806;SDS011;58882;52.170;5.386;2023-03-08T02:50:08;7.18;;;3.53;;
70806;SDS011;58882;52.170;5.386;2023-03-08T02:52:50;8.88;;;3.80;;
70806;SDS011;58882;52.170;5.386;2023-03-08T02:55:37;7.13;;;3.58;;
70806;SDS011;58882;52.170;5.386;2023-03-08T02:58:25;9.30;;;4.00;;
70806;SDS011;58882;52.170;5.386;2023-03-08T03:01:19;8.13;;;3.90;;
70806;SDS011;58882;52.170;5.386;2023-03-08T03:03:59;8.02;;;3.70;;
70806;SDS011;58882;52.170;5.386;2023-03-08T03:06:46;7.50;;;4.28;;
70806;SDS011;58882;52.170;5.386;2023-03-08T03:09:28;6.57;;;3.65;;
70806;SDS011;58882;52.170;5.386;2023-03-08T03:12:15;8.30;;;4.18;;
70806;SDS011;58882;52.170;5.386;2023-03-08T03:14:55;8.02;;;4.18;;
70806;SDS011;58882;52.170;5.386;2023-03-08T03:17:51;10.32;;;4.90;;
70806;SDS011;58882;52.170;5.386;2023-03-08T03:20:32;7.75;;;4.00;;
70806;SDS011;58882;52.170;5.386;2023-03-08T03:23:25;8.40;;;4.40;;
70806;SDS011;58882;52.170;5.386;2023-03-08T03:26:12;9.45;;;4.65;;
70806;SDS011;58882;52.170;5.386;2023-03-08T03:29:02;8.43;;;4.45;;
70806;SDS011;58882;52.170;5.386;2023-03-08T03:31:38;8.85;;;4.28;;
70806;SDS011;58882;52.170;5.386;2023-03-08T03:34:33;8.07;;;4.22;;
70806;SDS011;58882;52.170;5.386;2023-03-08T03:37:07;8.52;;;4.93;;
70806;SDS011;58882;52.170;5.386;2023-03-08T03:40:02;10.90;;;4.72;;
70806;SDS011;58882;52.170;5.386;2023-03-08T03:42:47;11.00;;;5.20;;
70806;SDS011;58882;52.170;5.386;2023-03-08T03:45:41;10.10;;;4.60;;
70806;SDS011;58882;52.170;5.386;2023-03-08T03:48:22;13.48;;;4.47;;
70806;SDS011;58882;52.170;5.386;2023-03-08T03:51:17;9.38;;;4.50;;
70806;SDS011;58882;52.170;5.386;2023-03-08T03:54:10;8.70;;;4.45;;
70806;SDS011;58882;52.170;5.386;2023-03-08T03:57:04;8.90;;;4.68;;
70806;SDS011;58882;52.170;5.386;2023-03-08T03:59:58;9.18;;;4.75;;
70806;SDS011;58882;52.170;5.386;2023-03-08T04:02:38;9.23;;;4.75;;
70806;SDS011;58882;52.170;5.386;2023-03-08T04:08:06;10.02;;;5.00;;
70806;SDS011;58882;52.170;5.386;2023-03-08T04:10:58;12.15;;;5.28;;
70806;SDS011;58882;52.170;5.386;2023-03-08T04:13:39;10.75;;;5.63;;
70806;SDS011;58882;52.170;5.386;2023-03-08T04:16:36;11.48;;;5.75;;
70806;SDS011;58882;52.170;5.386;2023-03-08T04:19:25;10.30;;;5.45;;
70806;SDS011;58882;52.170;5.386;2023-03-08T04:22:13;11.38;;;5.88;;
70806;SDS011;58882;52.170;5.386;2023-03-08T04:25:02;13.15;;;6.53;;
70806;SDS011;58882;52.170;5.386;2023-03-08T04:27:55;12.82;;;6.70;;
70806;SDS011;58882;52.170;5.386;2023-03-08T04:33:25;14.05;;;7.65;;
70806;SDS011;58882;52.170;5.386;2023-03-08T04:36:06;14.32;;;7.60;;
70806;SDS011;58882;52.170;5.386;2023-03-08T04:41:34;15.02;;;7.72;;
70806;SDS011;58882;52.170;5.386;2023-03-08T04:44:27;15.57;;;8.32;;
70806;SDS011;58882;52.170;5.386;2023-03-08T04:47:09;14.60;;;7.95;;
70806;SDS011;58882;52.170;5.386;2023-03-08T04:49:55;16.10;;;8.65;;
70806;SDS011;58882;52.170;5.386;2023-03-08T04:52:36;16.58;;;8.82;;
70806;SDS011;58882;52.170;5.386;2023-03-08T04:55:22;18.27;;;9.40;;
70806;SDS011;58882;52.170;5.386;2023-03-08T04:58:09;16.35;;;9.10;;
70806;SDS011;58882;52.170;5.386;2023-03-08T05:00:50;19.95;;;10.25;;
70806;SDS011;58882;52.170;5.386;2023-03-08T05:03:36;18.65;;;9.63;;
70806;SDS011;58882;52.170;5.386;2023-03-08T05:06:10;17.90;;;9.77;;
70806;SDS011;58882;52.170;5.386;2023-03-08T05:09:05;18.45;;;9.80;;
70806;SDS011;58882;52.170;5.386;2023-03-08T05:11:48;20.02;;;9.82;;
70806;SDS011;58882;52.170;5.386;2023-03-08T05:14:51;19.58;;;9.85;;
70806;SDS011;58882;52.170;5.386;2023-03-08T05:17:31;18.63;;;10.07;;
70806;SDS011;58882;52.170;5.386;2023-03-08T05:20:19;18.40;;;10.30;;
70806;SDS011;58882;52.170;5.386;2023-03-08T05:23:00;21.15;;;11.30;;
70806;SDS011;58882;52.170;5.386;2023-03-08T05:25:50;17.52;;;9.40;;
70806;SDS011;58882;52.170;5.386;2023-03-08T05:28:31;18.83;;;10.63;;
70806;SDS011;58882;52.170;5.386;2023-03-08T05:31:24;20.50;;;10.63;;
70806;SDS011;58882;52.170;5.386;2023-03-08T05:34:08;20.35;;;11.02;;
70806;SDS011;58882;52.170;5.386;2023-03-08T05:36:55;19.60;;;9.95;;
70806;SDS011;58882;52.170;5.386;2023-03-08T05:39:37;22.25;;;11.48;;
70806;SDS011;58882;52.170;5.386;2023-03-08T05:42:29;21.90;;;10.98;;
70806;SDS011;58882;52.170;5.386;2023-03-08T05:45:11;21.52;;;11.60;;
70806;SDS011;58882;52.170;5.386;2023-03-08T05:47:58;20.25;;;11.25;;
70806;SDS011;58882;52.170;5.386;2023-03-08T05:50:39;21.50;;;10.93;;
70806;SDS011;58882;52.170;5.386;2023-03-08T05:53:25;19.85;;;11.13;;
70806;SDS011;58882;52.170;5.386;2023-03-08T05:56:11;21.33;;;11.88;;
70806;SDS011;58882;52.170;5.386;2023-03-08T05:59:07;20.45;;;11.18;;
70806;SDS011;58882;52.170;5.386;2023-03-08T06:01:48;20.77;;;11.40;;
70806;SDS011;58882;52.170;5.386;2023-03-08T06:04:46;20.08;;;10.70;;
70806;SDS011;58882;52.170;5.386;2023-03-08T06:07:23;18.80;;;10.90;;
70806;SDS011;58882;52.170;5.386;2023-03-08T06:10:18;20.42;;;11.27;;
70806;SDS011;58882;52.170;5.386;2023-03-08T06:12:52;20.77;;;11.32;;
70806;SDS011;58882;52.170;5.386;2023-03-08T06:15:46;22.85;;;12.30;;
70806;SDS011;58882;52.170;5.386;2023-03-08T06:18:20;23.83;;;12.40;;
70806;SDS011;58882;52.170;5.386;2023-03-08T06:21:15;26.85;;;12.98;;
70806;SDS011;58882;52.170;5.386;2023-03-08T06:24:00;23.30;;;12.60;;
70806;SDS011;58882;52.170;5.386;2023-03-08T06:26:47;23.70;;;12.07;;
70806;SDS011;58882;52.170;5.386;2023-03-08T06:29:27;22.30;;;12.57;;
70806;SDS011;58882;52.170;5.386;2023-03-08T06:32:14;24.00;;;12.82;;
70806;SDS011;58882;52.170;5.386;2023-03-08T06:34:55;23.88;;;12.45;;
70806;SDS011;58882;52.170;5.386;2023-03-08T06:37:53;21.83;;;12.20;;
70806;SDS011;58882;52.170;5.386;2023-03-08T06:40:35;23.17;;;12.27;;
70806;SDS011;58882;52.170;5.386;2023-03-08T06:43:22;22.38;;;11.98;;
70806;SDS011;58882;52.170;5.386;2023-03-08T06:46:03;24.00;;;12.90;;
70806;SDS011;58882;52.170;5.386;2023-03-08T06:48:51;22.27;;;12.65;;
70806;SDS011;58882;52.170;5.386;2023-03-08T06:51:33;24.05;;;13.23;;
70806;SDS011;58882;52.170;5.386;2023-03-08T06:54:20;21.75;;;12.13;;
70806;SDS011;58882;52.170;5.386;2023-03-08T06:57:04;31.00;;;12.65;;
70806;SDS011;58882;52.170;5.386;2023-03-08T06:59:51;28.27;;;12.32;;
70806;SDS011;58882;52.170;5.386;2023-03-08T07:02:31;24.48;;;12.63;;
70806;SDS011;58882;52.170;5.386;2023-03-08T07:05:26;23.45;;;12.15;;
70806;SDS011;58882;52.170;5.386;2023-03-08T07:08:07;22.80;;;10.77;;
70806;SDS011;58882;52.170;5.386;2023-03-08T07:10:53;30.63;;;11.23;;
70806;SDS011;58882;52.170;5.386;2023-03-08T07:13:34;21.40;;;11.00;;
70806;SDS011;58882;52.170;5.386;2023-03-08T07:16:21;18.63;;;10.27;;
70806;SDS011;58882;52.170;5.386;2023-03-08T07:19:02;19.27;;;10.38;;
70806;SDS011;58882;52.170;5.386;2023-03-08T07:21:48;18.48;;;10.05;;
70806;SDS011;58882;52.170;5.386;2023-03-08T07:29:55;19.52;;;10.57;;
70806;SDS011;58882;52.170;5.386;2023-03-08T07:32:51;21.58;;;10.95;;
70806;SDS011;58882;52.170;5.386;2023-03-08T07:35:31;19.60;;;11.27;;
70806;SDS011;58882;52.170;5.386;2023-03-08T07:38:25;21.73;;;11.20;;
70806;SDS011;58882;52.170;5.386;2023-03-08T07:40:58;21.08;;;11.38;;
70806;SDS011;58882;52.170;5.386;2023-03-08T07:43:52;21.27;;;11.50;;
70806;SDS011;58882;52.170;5.386;2023-03-08T07:46:25;22.65;;;11.70;;
70806;SDS011;58882;52.170;5.386;2023-03-08T07:49:19;22.02;;;11.05;;
70806;SDS011;58882;52.170;5.386;2023-03-08T07:52:00;22.92;;;11.55;;
70806;SDS011;58882;52.170;5.386;2023-03-08T07:54:46;21.52;;;12.13;;
70806;SDS011;58882;52.170;5.386;2023-03-08T07:57:33;24.00;;;12.70;;
70806;SDS011;58882;52.170;5.386;2023-03-08T08:00:13;21.17;;;11.30;;
70806;SDS011;58882;52.170;5.386;2023-03-08T08:03:00;26.25;;;13.57;;
70806;SDS011;58882;52.170;5.386;2023-03-08T08:05:40;26.40;;;13.32;;
70806;SDS011;58882;52.170;5.386;2023-03-08T08:08:27;28.38;;;14.80;;
70806;SDS011;58882;52.170;5.386;2023-03-08T08:11:21;26.77;;;14.07;;
70806;SDS011;58882;52.170;5.386;2023-03-08T08:14:02;29.88;;;14.52;;
70806;SDS011;58882;52.170;5.386;2023-03-08T08:19:29;26.70;;;12.70;;
70806;SDS011;58882;52.170;5.386;2023-03-08T08:22:16;28.70;;;13.13;;
70806;SDS011;58882;52.170;5.386;2023-03-08T08:24:56;29.55;;;13.50;;
70806;SDS011;58882;52.170;5.386;2023-03-08T08:27:50;28.17;;;13.05;;
70806;SDS011;58882;52.170;5.386;2023-03-08T08:30:23;27.88;;;13.15;;
70806;SDS011;58882;52.170;5.386;2023-03-08T08:33:17;25.50;;;12.77;;
70806;SDS011;58882;52.170;5.386;2023-03-08T08:35:58;27.08;;;13.80;;
70806;SDS011;58882;52.170;5.386;2023-03-08T08:41:19;24.92;;;12.55;;
70806;SDS011;58882;52.170;5.386;2023-03-08T08:44:14;26.35;;;13.20;;
70806;SDS011;58882;52.170;5.386;2023-03-08T08:46:54;27.10;;;13.88;;
70806;SDS011;58882;52.170;5.386;2023-03-08T08:49:41;28.35;;;14.02;;
70806;SDS011;58882;52.170;5.386;2023-03-08T08:52:21;28.23;;;12.52;;
70806;SDS011;58882;52.170;5.386;2023-03-08T08:55:08;24.90;;;12.57;;
70806;SDS011;58882;52.170;5.386;2023-03-08T08:57:48;26.88;;;12.95;;
70806;SDS011;58882;52.170;5.386;2023-03-08T09:00:43;28.08;;;12.70;;
70806;SDS011;58882;52.170;5.386;2023-03-08T09:03:37;27.50;;;13.00;;
70806;SDS011;58882;52.170;5.386;2023-03-08T09:06:18;28.05;;;13.57;;
70806;SDS011;58882;52.170;5.386;2023-03-08T09:09:07;27.08;;;12.77;;
70806;SDS011;58882;52.170;5.386;2023-03-08T09:11:47;27.45;;;13.13;;
70806;SDS011;58882;52.170;5.386;2023-03-08T09:14:34;29.75;;;12.77;;
70806;SDS011;58882;52.170;5.386;2023-03-08T09:17:07;24.50;;;12.38;;
70806;SDS011;58882;52.170;5.386;2023-03-08T09:20:01;28.15;;;13.07;;
70806;SDS011;58882;52.170;5.386;2023-03-08T09:22:41;26.17;;;12.65;;
70806;SDS011;58882;52.170;5.386;2023-03-08T09:25:28;23.08;;;11.77;;
70806;SDS011;58882;52.170;5.386;2023-03-08T09:28:02;25.40;;;12.15;;
70806;SDS011;58882;52.170;5.386;2023-03-08T09:30:55;25.10;;;12.15;;
70806;SDS011;58882;52.170;5.386;2023-03-08T09:33:36;27.05;;;13.18;;
70806;SDS011;58882;52.170;5.386;2023-03-08T09:36:31;22.92;;;11.15;;
70806;SDS011;58882;52.170;5.386;2023-03-08T09:39:12;25.75;;;12.68;;
70806;SDS011;58882;52.170;5.386;2023-03-08T09:47:57;23.13;;;11.40;;
70806;SDS011;58882;52.170;5.386;2023-03-08T09:50:58;22.95;;;11.18;;
70806;SDS011;58882;52.170;5.386;2023-03-08T09:53:58;24.20;;;11.75;;
70806;SDS011;58882;52.170;5.386;2023-03-08T09:56:36;21.20;;;11.05;;
70806;SDS011;58882;52.170;5.386;2023-03-08T09:59:40;25.35;;;12.07;;
70806;SDS011;58882;52.170;5.386;2023-03-08T10:02:47;22.52;;;10.98;;
70806;SDS011;58882;52.170;5.386;2023-03-08T10:14:49;22.35;;;10.80;;
70806;SDS011;58882;52.170;5.386;2023-03-08T10:17:48;22.23;;;10.63;;
70806;SDS011;58882;52.170;5.386;2023-03-08T10:20:27;20.58;;;10.77;;
70806;SDS011;58882;52.170;5.386;2023-03-08T10:23:23;21.45;;;11.13;;
70806;SDS011;58882;52.170;5.386;2023-03-08T10:26:10;19.55;;;10.15;;
70806;SDS011;58882;52.170;5.386;2023-03-08T10:28:59;22.48;;;11.02;;
70806;SDS011;58882;52.170;5.386;2023-03-08T10:31:41;20.63;;;10.02;;
70806;SDS011;58882;52.170;5.386;2023-03-08T10:34:29;21.33;;;11.13;;
70806;SDS011;58882;52.170;5.386;2023-03-08T10:37:10;20.05;;;10.13;;
70806;SDS011;58882;52.170;5.386;2023-03-08T10:39:59;21.10;;;10.68;;
70806;SDS011;58882;52.170;5.386;2023-03-08T10:43:05;21.17;;;10.43;;
70806;SDS011;58882;52.170;5.386;2023-03-08T10:46:05;19.10;;;9.85;;
70806;SDS011;58882;52.170;5.386;2023-03-08T10:48:53;20.23;;;11.05;;
70806;SDS011;58882;52.170;5.386;2023-03-08T10:51:51;20.25;;;10.57;;
70806;SDS011;58882;52.170;5.386;2023-03-08T10:54:33;18.60;;;10.13;;
70806;SDS011;58882;52.170;5.386;2023-03-08T10:57:20;20.90;;;10.55;;
70806;SDS011;58882;52.170;5.386;2023-03-08T11:00:29;19.35;;;9.25;;
70806;SDS011;58882;52.170;5.386;2023-03-08T11:03:20;21.77;;;10.57;;
70806;SDS011;58882;52.170;5.386;2023-03-08T11:06:04;19.30;;;9.68;;
70806;SDS011;58882;52.170;5.386;2023-03-08T11:12:20;19.35;;;10.07;;
70806;SDS011;58882;52.170;5.386;2023-03-08T11:15:14;21.05;;;10.18;;
70806;SDS011;58882;52.170;5.386;2023-03-08T11:17:58;17.42;;;9.18;;
70806;SDS011;58882;52.170;5.386;2023-03-08T11:20:58;19.42;;;9.52;;
70806;SDS011;58882;52.170;5.386;2023-03-08T11:24:21;17.92;;;9.38;;
70806;SDS011;58882;52.170;5.386;2023-03-08T11:30:29;22.67;;;9.70;;
70806;SDS011;58882;52.170;5.386;2023-03-08T11:36:21;18.48;;;8.60;;
70806;SDS011;58882;52.170;5.386;2023-03-08T11:39:34;17.95;;;8.75;;
70806;SDS011;58882;52.170;5.386;2023-03-08T11:42:43;19.02;;;9.00;;
70806;SDS011;58882;52.170;5.386;2023-03-08T11:51:51;16.80;;;8.00;;
70806;SDS011;58882;52.170;5.386;2023-03-08T11:54:46;16.80;;;8.27;;
70806;SDS011;58882;52.170;5.386;2023-03-08T11:57:46;17.73;;;8.45;;
70806;SDS011;58882;52.170;5.386;2023-03-08T12:00:36;17.83;;;8.30;;
70806;SDS011;58882;52.170;5.386;2023-03-08T12:03:34;14.90;;;7.57;;
70806;SDS011;58882;52.170;5.386;2023-03-08T12:06:20;15.27;;;7.88;;
70806;SDS011;58882;52.170;5.386;2023-03-08T12:09:27;17.15;;;9.00;;
70806;SDS011;58882;52.170;5.386;2023-03-08T12:12:58;16.65;;;8.75;;
70806;SDS011;58882;52.170;5.386;2023-03-08T12:15:33;18.08;;;8.95;;
70806;SDS011;58882;52.170;5.386;2023-03-08T12:18:44;18.17;;;8.85;;
70806;SDS011;58882;52.170;5.386;2023-03-08T12:25:12;19.70;;;8.88;;
70806;SDS011;58882;52.170;5.386;2023-03-08T12:28:22;19.73;;;9.45;;
70806;SDS011;58882;52.170;5.386;2023-03-08T12:34:26;16.23;;;8.45;;
70806;SDS011;58882;52.170;5.386;2023-03-08T12:37:18;18.08;;;8.95;;
70806;SDS011;58882;52.170;5.386;2023-03-08T12:46:12;16.52;;;8.00;;
70806;SDS011;58882;52.170;5.386;2023-03-08T12:48:53;18.55;;;8.45;;
70806;SDS011;58882;52.170;5.386;2023-03-08T12:51:40;15.88;;;8.10;;
70806;SDS011;58882;52.170;5.386;2023-03-08T12:54:21;19.98;;;8.95;;
70806;SDS011;58882;52.170;5.386;2023-03-08T12:57:19;19.38;;;8.50;;
70806;SDS011;58882;52.170;5.386;2023-03-08T13:06:15;18.48;;;8.88;;
70806;SDS011;58882;52.170;5.386;2023-03-08T13:08:59;17.92;;;8.45;;
70806;SDS011;58882;52.170;5.386;2023-03-08T13:23:35;16.75;;;8.15;;
70806;SDS011;58882;52.170;5.386;2023-03-08T13:26:26;18.38;;;9.35;;
70806;SDS011;58882;52.170;5.386;2023-03-08T13:29:30;15.75;;;7.93;;
70806;SDS011;58882;52.170;5.386;2023-03-08T13:32:12;16.00;;;8.90;;
70806;SDS011;58882;52.170;5.386;2023-03-08T13:35:13;17.80;;;8.90;;
70806;SDS011;58882;52.170;5.386;2023-03-08T13:37:57;16.00;;;9.00;;
70806;SDS011;58882;52.170;5.386;2023-03-08T13:40:52;18.63;;;8.35;;
70806;SDS011;58882;52.170;5.386;2023-03-08T13:43:30;20.50;;;9.18;;
70806;SDS011;58882;52.170;5.386;2023-03-08T13:46:28;18.95;;;9.15;;
70806;SDS011;58882;52.170;5.386;2023-03-08T13:49:01;16.48;;;8.90;;
70806;SDS011;58882;52.170;5.386;2023-03-08T13:51:56;17.55;;;8.65;;
70806;SDS011;58882;52.170;5.386;2023-03-08T13:54:36;16.00;;;8.60;;
70806;SDS011;58882;52.170;5.386;2023-03-08T13:57:35;20.00;;;9.45;;
70806;SDS011;58882;52.170;5.386;2023-03-08T14:00:32;15.88;;;8.10;;
70806;SDS011;58882;52.170;5.386;2023-03-08T14:03:17;18.30;;;9.20;;
70806;SDS011;58882;52.170;5.386;2023-03-08T14:06:15;18.15;;;9.23;;
70806;SDS011;58882;52.170;5.386;2023-03-08T14:08:55;18.77;;;9.68;;
70806;SDS011;58882;52.170;5.386;2023-03-08T14:12:02;18.98;;;9.82;;
70806;SDS011;58882;52.170;5.386;2023-03-08T14:14:39;18.25;;;8.55;;
70806;SDS011;58882;52.170;5.386;2023-03-08T14:17:35;17.35;;;9.45;;
70806;SDS011;58882;52.170;5.386;2023-03-08T14:20:24;16.20;;;8.88;;
70806;SDS011;58882;52.170;5.386;2023-03-08T14:23:21;16.83;;;9.05;;
70806;SDS011;58882;52.170;5.386;2023-03-08T14:26:03;16.45;;;8.25;;
70806;SDS011;58882;52.170;5.386;2023-03-08T14:29:00;14.93;;;8.63;;
70806;SDS011;58882;52.170;5.386;2023-03-08T14:35:14;17.38;;;8.50;;
70806;SDS011;58882;52.170;5.386;2023-03-08T14:37:59;15.25;;;8.27;;
70806;SDS011;58882;52.170;5.386;2023-03-08T14:40:46;16.50;;;8.90;;
70806;SDS011;58882;52.170;5.386;2023-03-08T14:43:28;15.10;;;8.05;;
70806;SDS011;58882;52.170;5.386;2023-03-08T14:46:16;15.38;;;8.60;;
70806;SDS011;58882;52.170;5.386;2023-03-08T14:49:02;17.27;;;8.98;;
70806;SDS011;58882;52.170;5.386;2023-03-08T14:51:49;15.50;;;8.38;;
70806;SDS011;58882;52.170;5.386;2023-03-08T14:57:22;14.93;;;7.40;;
70806;SDS011;58882;52.170;5.386;2023-03-08T15:00:12;16.13;;;7.30;;
70806;SDS011;58882;52.170;5.386;2023-03-08T15:02:57;14.43;;;7.65;;
70806;SDS011;58882;52.170;5.386;2023-03-08T15:05:45;13.30;;;6.72;;
70806;SDS011;58882;52.170;5.386;2023-03-08T15:08:25;11.25;;;5.85;;
70806;SDS011;58882;52.170;5.386;2023-03-08T15:11:13;11.77;;;6.15;;
70806;SDS011;58882;52.170;5.386;2023-03-08T15:13:53;11.52;;;6.13;;
70806;SDS011;58882;52.170;5.386;2023-03-08T15:16:40;14.15;;;5.93;;
70806;SDS011;58882;52.170;5.386;2023-03-08T15:19:20;11.20;;;5.60;;
70806;SDS011;58882;52.170;5.386;2023-03-08T15:22:09;11.82;;;5.95;;
70806;SDS011;58882;52.170;5.386;2023-03-08T15:24:51;11.73;;;6.10;;
70806;SDS011;58882;52.170;5.386;2023-03-08T15:27:45;12.20;;;5.80;;
70806;SDS011;58882;52.170;5.386;2023-03-08T15:30:23;10.65;;;5.60;;
70806;SDS011;58882;52.170;5.386;2023-03-08T15:33:19;12.70;;;5.80;;
70806;SDS011;58882;52.170;5.386;2023-03-08T15:35:59;11.82;;;6.00;;
70806;SDS011;58882;52.170;5.386;2023-03-08T15:41:27;12.38;;;6.03;;
70806;SDS011;58882;52.170;5.386;2023-03-08T15:44:14;11.50;;;5.72;;
70806;SDS011;58882;52.170;5.386;2023-03-08T15:46:54;12.10;;;6.10;;
70806;SDS011;58882;52.170;5.386;2023-03-08T15:49:41;11.95;;;5.55;;
70806;SDS011;58882;52.170;5.386;2023-03-08T15:55:10;13.23;;;6.75;;
70806;SDS011;58882;52.170;5.386;2023-03-08T15:57:59;11.90;;;5.38;;
70806;SDS011;58882;52.170;5.386;2023-03-08T16:00:53;13.77;;;6.18;;
70806;SDS011;58882;52.170;5.386;2023-03-08T16:03:33;12.20;;;5.38;;
70806;SDS011;58882;52.170;5.386;2023-03-08T16:06:14;11.23;;;5.20;;
70806;SDS011;58882;52.170;5.386;2023-03-08T16:09:00;10.43;;;5.32;;
70806;SDS011;58882;52.170;5.386;2023-03-08T16:11:40;12.32;;;5.93;;
70806;SDS011;58882;52.170;5.386;2023-03-08T16:14:27;11.25;;;5.30;;
70806;SDS011;58882;52.170;5.386;2023-03-08T16:17:07;11.43;;;6.05;;
70806;SDS011;58882;52.170;5.386;2023-03-08T16:22:35;10.93;;;5.55;;
70806;SDS011;58882;52.170;5.386;2023-03-08T16:25:22;10.88;;;5.97;;
70806;SDS011;58882;52.170;5.386;2023-03-08T16:28:02;12.45;;;5.90;;
70806;SDS011;58882;52.170;5.386;2023-03-08T16:30:49;11.45;;;5.78;;
70806;SDS011;58882;52.170;5.386;2023-03-08T16:33:29;11.18;;;6.18;;
70806;SDS011;58882;52.170;5.386;2023-03-08T16:36:16;14.23;;;6.20;;
70806;SDS011;58882;52.170;5.386;2023-03-08T16:38:56;11.95;;;6.28;;
70806;SDS011;58882;52.170;5.386;2023-03-08T16:41:43;10.82;;;5.80;;
70806;SDS011;58882;52.170;5.386;2023-03-08T16:44:24;12.00;;;5.97;;
70806;SDS011;58882;52.170;5.386;2023-03-08T16:47:21;12.18;;;6.10;;
70806;SDS011;58882;52.170;5.386;2023-03-08T16:50:17;14.32;;;6.43;;
70806;SDS011;58882;52.170;5.386;2023-03-08T16:52:52;11.95;;;6.35;;
70806;SDS011;58882;52.170;5.386;2023-03-08T16:55:46;13.10;;;6.68;;
70806;SDS011;58882;52.170;5.386;2023-03-08T16:58:26;12.52;;;6.13;;
70806;SDS011;58882;52.170;5.386;2023-03-08T17:01:14;11.52;;;5.88;;
70806;SDS011;58882;52.170;5.386;2023-03-08T17:03:56;13.77;;;7.13;;
70806;SDS011;58882;52.170;5.386;2023-03-08T17:09:17;11.77;;;6.25;;
70806;SDS011;58882;52.170;5.386;2023-03-08T17:12:11;14.88;;;7.05;;
70806;SDS011;58882;52.170;5.386;2023-03-08T17:14:44;13.82;;;6.50;;
70806;SDS011;58882;52.170;5.386;2023-03-08T17:17:38;12.25;;;6.55;;
70806;SDS011;58882;52.170;5.386;2023-03-08T17:20:18;12.55;;;6.28;;
70806;SDS011;58882;52.170;5.386;2023-03-08T17:23:12;12.90;;;6.68;;
70806;SDS011;58882;52.170;5.386;2023-03-08T17:25:45;13.90;;;7.25;;
70806;SDS011;58882;52.170;5.386;2023-03-08T17:28:40;14.65;;;7.20;;
70806;SDS011;58882;52.170;5.386;2023-03-08T17:34:08;14.55;;;6.82;;
70806;SDS011;58882;52.170;5.386;2023-03-08T17:36:42;13.70;;;7.10;;
70806;SDS011;58882;52.170;5.386;2023-03-08T17:39:36;13.85;;;7.47;;
70806;SDS011;58882;52.170;5.386;2023-03-08T17:45:04;13.98;;;7.22;;
70806;SDS011;58882;52.170;5.386;2023-03-08T17:47:39;14.23;;;7.18;;
70806;SDS011;58882;52.170;5.386;2023-03-08T17:50:33;14.65;;;7.70;;
70806;SDS011;58882;52.170;5.386;2023-03-08T17:53:13;15.52;;;7.32;;
70806;SDS011;58882;52.170;5.386;2023-03-08T17:56:08;13.80;;;7.57;;
70806;SDS011;58882;52.170;5.386;2023-03-08T17:58:59;13.98;;;7.20;;
70806;SDS011;58882;52.170;5.386;2023-03-08T18:01:39;14.70;;;7.45;;
70806;SDS011;58882;52.170;5.386;2023-03-08T18:04:34;15.68;;;7.65;;
70806;SDS011;58882;52.170;5.386;2023-03-08T18:07:16;13.95;;;7.50;;
70806;SDS011;58882;52.170;5.386;2023-03-08T18:10:12;15.30;;;7.75;;
70806;SDS011;58882;52.170;5.386;2023-03-08T18:15:39;15.18;;;7.53;;
70806;SDS011;58882;52.170;5.386;2023-03-08T18:18:19;14.85;;;7.75;;
70806;SDS011;58882;52.170;5.386;2023-03-08T18:21:14;15.13;;;7.95;;
70806;SDS011;58882;52.170;5.386;2023-03-08T18:23:48;14.82;;;8.07;;
70806;SDS011;58882;52.170;5.386;2023-03-08T18:26:45;14.75;;;7.88;;